createdAt,value
2022-08-30T00:01:05.118Z,16.47
2022-08-30T00:03:41.673Z,16.43
2022-08-30T00:06:09.706Z,16.44
2022-08-30T00:08:36.618Z,16.39
2022-08-30T00:11:05.226Z,16.38
2022-08-30T00:13:32.081Z,16.28
2022-08-30T00:15:58.900Z,16.17
2022-08-30T00:18:25.688Z,16.04
2022-08-30T00:20:52.825Z,16.01
2022-08-30T00:23:19.706Z,16.06
2022-08-30T00:25:46.641Z,16.05
2022-08-30T00:28:14.428Z,16.03
2022-08-30T00:30:43.526Z,15.98
2022-08-30T00:33:10.841Z,15.94
2022-08-30T00:35:38.785Z,15.87
2022-08-30T00:38:06.550Z,15.81
2022-08-30T00:40:33.991Z,15.75
2022-08-30T00:43:05.651Z,15.78
2022-08-30T00:45:37.072Z,15.77
2022-08-30T00:48:05.310Z,15.74
2022-08-30T00:50:42.679Z,15.77
2022-08-30T00:53:13.687Z,15.73
2022-08-30T00:55:44.164Z,15.74
2022-08-30T00:58:16.806Z,15.73
2022-08-30T01:00:44.212Z,15.77
2022-08-30T01:03:10.907Z,15.73
2022-08-30T01:05:38.886Z,15.75
2022-08-30T01:08:06.787Z,15.77
2022-08-30T01:10:34.738Z,15.75
2022-08-30T01:13:02.010Z,15.76
2022-08-30T01:15:29.241Z,15.73
2022-08-30T01:17:56.926Z,15.68
2022-08-30T01:20:29.239Z,15.64
2022-08-30T01:22:58.888Z,15.59
2022-08-30T01:25:30.283Z,15.56
2022-08-30T01:28:03.494Z,15.55
2022-08-30T01:30:31.400Z,15.55
2022-08-30T01:33:01.980Z,15.54
2022-08-30T01:35:33.322Z,15.56
2022-08-30T01:37:59.998Z,15.54
2022-08-30T01:40:26.770Z,15.50
2022-08-30T01:42:53.429Z,15.48
2022-08-30T01:45:20.229Z,15.48
2022-08-30T01:47:46.861Z,15.46
2022-08-30T01:50:13.657Z,15.40
2022-08-30T01:52:40.489Z,15.37
2022-08-30T01:55:08.940Z,15.26
2022-08-30T01:57:35.701Z,15.28
2022-08-30T02:00:02.602Z,15.27
2022-08-30T02:02:38.786Z,15.26
2022-08-30T02:05:06.462Z,15.24
2022-08-30T02:07:33.130Z,15.19
2022-08-30T02:09:59.918Z,15.12
2022-08-30T02:12:26.646Z,15.09
2022-08-30T02:14:53.468Z,15.12
2022-08-30T02:17:20.132Z,15.13
2022-08-30T02:19:46.962Z,15.16
2022-08-30T02:22:13.851Z,15.13
2022-08-30T02:24:40.626Z,15.15
2022-08-30T02:27:07.845Z,15.13
2022-08-30T02:29:34.669Z,15.13
2022-08-30T02:32:01.325Z,15.11
2022-08-30T02:34:27.987Z,15.08
2022-08-30T02:36:54.687Z,15.03
2022-08-30T02:39:21.581Z,15.01
2022-08-30T02:41:48.402Z,15.01
2022-08-30T02:44:15.588Z,15.00
2022-08-30T02:46:42.310Z,14.98
2022-08-30T02:49:32.121Z,14.93
2022-08-30T02:51:55.982Z,14.88
2022-08-30T02:54:22.724Z,14.89
2022-08-30T02:56:50.212Z,14.87
2022-08-30T02:59:18.594Z,14.91
2022-08-30T03:01:45.827Z,14.91
2022-08-30T03:04:12.840Z,14.89
2022-08-30T03:06:39.481Z,14.85
2022-08-30T03:09:06.160Z,14.79
2022-08-30T03:11:32.917Z,14.73
2022-08-30T03:13:59.675Z,14.65
2022-08-30T03:16:26.472Z,14.63
2022-08-30T03:18:53.250Z,14.65
2022-08-30T03:21:19.889Z,14.68
2022-08-30T03:23:46.591Z,14.74
2022-08-30T03:26:15.011Z,14.75
2022-08-30T03:28:43.422Z,14.78
2022-08-30T03:31:11.603Z,14.75
2022-08-30T03:33:40.570Z,14.75
2022-08-30T03:36:08.910Z,14.72
2022-08-30T03:38:36.246Z,14.74
2022-08-30T03:41:03.709Z,14.72
2022-08-30T03:43:33.468Z,14.70
2022-08-30T03:46:01.502Z,14.68
2022-08-30T03:48:28.895Z,14.65
2022-08-30T03:50:56.144Z,14.66
2022-08-30T03:53:25.569Z,14.63
2022-08-30T03:55:54.243Z,14.55
2022-08-30T03:58:21.969Z,14.48
2022-08-30T04:00:48.712Z,14.47
2022-08-30T04:03:15.771Z,14.42
2022-08-30T04:05:42.633Z,14.39
2022-08-30T04:08:09.295Z,14.39
2022-08-30T04:10:36.163Z,14.37
2022-08-30T04:13:03.100Z,14.39
2022-08-30T04:15:29.759Z,14.38
2022-08-30T04:17:56.556Z,14.37
2022-08-30T04:20:23.484Z,14.34
2022-08-30T04:22:51.677Z,14.35
2022-08-30T04:25:18.862Z,14.32
2022-08-30T04:27:46.198Z,14.26
2022-08-30T04:30:15.089Z,14.23
2022-08-30T04:32:42.683Z,14.18
2022-08-30T04:35:10.597Z,14.17
2022-08-30T04:37:38.320Z,14.20
2022-08-30T04:40:06.407Z,14.20
2022-08-30T04:42:34.929Z,14.22
2022-08-30T04:45:05.609Z,14.23
2022-08-30T04:47:32.483Z,14.22
2022-08-30T04:49:59.210Z,14.23
2022-08-30T04:52:26.087Z,14.26
2022-08-30T04:54:57.168Z,14.24
2022-08-30T04:57:25.317Z,14.27
2022-08-30T04:59:52.543Z,14.30
2022-08-30T05:02:19.885Z,14.33
2022-08-30T05:05:07.007Z,14.42
2022-08-30T05:07:33.823Z,14.50
2022-08-30T05:10:00.504Z,14.58
2022-08-30T05:12:27.792Z,14.64
2022-08-30T05:14:54.551Z,14.67
2022-08-30T05:17:21.243Z,14.66
2022-08-30T05:19:47.909Z,14.68
2022-08-30T05:22:14.589Z,14.73
2022-08-30T05:24:41.440Z,14.83
2022-08-30T05:27:08.365Z,14.95
2022-08-30T05:29:35.076Z,15.06
2022-08-30T05:32:01.913Z,15.18
2022-08-30T05:34:30.338Z,15.26
2022-08-30T05:36:57.050Z,15.29
2022-08-30T05:39:23.803Z,15.43
2022-08-30T05:41:50.522Z,15.57
2022-08-30T05:44:17.220Z,15.71
2022-08-30T05:46:46.309Z,15.89
2022-08-30T05:49:13.174Z,16.04
2022-08-30T05:51:42.975Z,16.18
2022-08-30T05:54:12.547Z,16.37
2022-08-30T05:56:40.794Z,16.58
2022-08-30T05:59:08.471Z,16.74
2022-08-30T06:01:39.727Z,16.97
2022-08-30T06:04:08.638Z,17.20
2022-08-30T06:06:37.161Z,17.38
2022-08-30T06:09:06.010Z,17.55
2022-08-30T06:11:33.925Z,17.68
2022-08-30T06:14:01.162Z,17.78
2022-08-30T06:16:28.791Z,17.86
2022-08-30T06:18:57.251Z,17.99
2022-08-30T06:21:30.961Z,18.18
2022-08-30T06:23:59.059Z,18.33
2022-08-30T06:26:27.284Z,18.48
2022-08-30T06:28:55.283Z,18.62
2022-08-30T06:31:23.592Z,18.79
2022-08-30T06:33:51.841Z,18.95
2022-08-30T06:36:21.755Z,19.17
2022-08-30T06:38:54.282Z,19.40
2022-08-30T06:41:24.981Z,19.39
2022-08-30T06:43:51.715Z,19.20
2022-08-30T06:46:21.791Z,19.24
2022-08-30T06:48:48.850Z,19.38
2022-08-30T06:51:19.871Z,19.39
2022-08-30T06:53:46.908Z,19.37
2022-08-30T06:56:16.407Z,19.41
2022-08-30T06:58:44.499Z,19.60
2022-08-30T07:01:23.803Z,19.81
2022-08-30T07:03:51.076Z,20.04
2022-08-30T07:06:19.068Z,20.45
2022-08-30T07:08:47.173Z,20.70
2022-08-30T07:11:14.729Z,20.90
2022-08-30T07:13:41.559Z,20.88
2022-08-30T07:16:13.258Z,20.64
2022-08-30T07:18:53.477Z,20.70
2022-08-30T07:21:29.706Z,20.78
2022-08-30T07:23:58.333Z,20.66
2022-08-30T07:26:35.115Z,20.88
2022-08-30T07:29:02.833Z,21.19
2022-08-30T07:31:30.000Z,21.30
2022-08-30T07:33:56.827Z,21.40
2022-08-30T07:36:24.494Z,21.40
2022-08-30T07:38:52.301Z,21.41
2022-08-30T07:41:24.779Z,21.50
2022-08-30T07:43:51.743Z,21.68
2022-08-30T07:46:19.783Z,22.07
2022-08-30T07:48:47.366Z,22.35
2022-08-30T07:51:18.350Z,22.59
2022-08-30T07:53:45.630Z,22.44
2022-08-30T07:56:12.996Z,22.28
2022-08-30T07:58:39.793Z,22.39
2022-08-30T08:01:08.982Z,22.87
2022-08-30T08:03:36.818Z,23.23
2022-08-30T08:06:05.542Z,23.25
2022-08-30T08:08:32.681Z,23.32
2022-08-30T08:11:16.638Z,23.62
2022-08-30T08:13:52.980Z,23.57
2022-08-30T08:16:23.382Z,23.74
2022-08-30T08:18:50.519Z,23.81
2022-08-30T08:21:17.337Z,23.50
2022-08-30T08:23:44.199Z,23.54
2022-08-30T08:26:11.028Z,23.54
2022-08-30T08:28:37.719Z,23.40
2022-08-30T08:31:13.400Z,23.19
2022-08-30T08:33:40.180Z,23.30
2022-08-30T08:36:09.385Z,23.42
2022-08-30T08:38:37.059Z,23.62
2022-08-30T08:41:42.325Z,23.85
2022-08-30T08:44:18.732Z,23.78
2022-08-30T08:47:01.270Z,23.54
2022-08-30T08:49:29.949Z,23.65
2022-08-30T08:52:16.329Z,23.67
2022-08-30T08:54:56.274Z,23.43
2022-08-30T08:57:35.189Z,23.58
2022-08-30T09:00:13.389Z,24.01
2022-08-30T09:02:46.287Z,24.20
2022-08-30T09:05:22.243Z,24.00
2022-08-30T09:07:57.194Z,23.77
2022-08-30T09:10:47.050Z,24.06
2022-08-30T09:13:16.970Z,24.36
2022-08-30T09:15:45.959Z,24.47
2022-08-30T09:18:19.417Z,24.75
2022-08-30T09:20:50.575Z,25.22
2022-08-30T09:23:27.404Z,25.23
2022-08-30T09:26:00.446Z,25.16
2022-08-30T09:28:30.766Z,25.32
2022-08-30T09:31:11.915Z,25.24
2022-08-30T09:33:39.306Z,24.90
2022-08-30T09:36:27.617Z,25.53
2022-08-30T09:39:04.352Z,25.85
2022-08-30T09:41:48.318Z,25.40
2022-08-30T09:44:30.567Z,25.52
2022-08-30T09:46:59.690Z,25.47
2022-08-30T09:49:32.995Z,25.36
2022-08-30T09:52:30.117Z,25.12
2022-08-30T09:55:18.079Z,25.56
2022-08-30T09:57:52.655Z,25.50
2022-08-30T10:00:22.989Z,25.84
2022-08-30T10:03:04.391Z,26.03
2022-08-30T10:05:46.110Z,26.05
2022-08-30T10:08:27.091Z,26.07
2022-08-30T10:11:09.143Z,26.26
2022-08-30T10:13:36.730Z,25.83
2022-08-30T10:16:10.750Z,25.55
2022-08-30T10:19:06.215Z,25.95
2022-08-30T10:21:43.814Z,26.11
2022-08-30T10:24:20.997Z,26.37
2022-08-30T10:26:59.877Z,26.97
2022-08-30T10:29:34.343Z,27.12
2022-08-30T10:32:22.627Z,27.05
2022-08-30T10:35:06.154Z,26.50
2022-08-30T10:37:39.904Z,26.35
2022-08-30T10:40:33.843Z,26.59
2022-08-30T10:43:05.685Z,26.61
2022-08-30T10:45:38.068Z,26.73
2022-08-30T10:48:13.876Z,26.93
2022-08-30T10:50:47.151Z,26.62
2022-08-30T10:53:19.635Z,26.60
2022-08-30T10:55:53.757Z,26.50
2022-08-30T10:58:21.002Z,26.38
2022-08-30T11:00:59.731Z,26.76
2022-08-30T11:03:52.918Z,27.22
2022-08-30T11:06:22.439Z,27.48
2022-08-30T11:09:19.794Z,27.08
2022-08-30T11:12:15.911Z,26.70
2022-08-30T11:14:46.148Z,27.40
2022-08-30T11:17:44.242Z,27.15
2022-08-30T11:20:34.619Z,26.99
2022-08-30T11:23:22.659Z,27.07
2022-08-30T11:26:03.903Z,27.21
2022-08-30T11:28:37.104Z,27.23
2022-08-30T11:31:23.991Z,27.54
2022-08-30T11:33:57.048Z,27.11
2022-08-30T11:36:37.592Z,27.09
2022-08-30T11:39:49.086Z,26.64
2022-08-30T11:42:30.524Z,26.89
2022-08-30T11:45:36.196Z,27.04
2022-08-30T11:48:09.492Z,27.13
2022-08-30T11:51:07.211Z,26.96
2022-08-30T11:53:48.622Z,27.21
2022-08-30T11:56:15.211Z,27.68
2022-08-30T11:58:54.022Z,28.09
2022-08-30T12:01:50.205Z,28.49
2022-08-30T12:04:16.624Z,28.04
2022-08-30T12:06:43.249Z,27.52
2022-08-30T12:09:25.123Z,26.92
2022-08-30T12:12:00.440Z,26.27
2022-08-30T12:14:40.999Z,25.98
2022-08-30T12:17:42.293Z,25.97
2022-08-30T12:20:47.256Z,26.60
2022-08-30T12:23:23.852Z,26.95
2022-08-30T12:26:10.904Z,27.24
2022-08-30T12:28:38.102Z,27.30
2022-08-30T12:31:27.219Z,27.24
2022-08-30T12:34:00.543Z,26.51
2022-08-30T12:36:32.713Z,26.25
2022-08-30T12:39:10.460Z,25.98
2022-08-30T12:41:43.702Z,25.97
2022-08-30T12:44:18.892Z,26.03
2022-08-30T12:46:49.156Z,26.19
2022-08-30T12:49:19.065Z,26.47
2022-08-30T12:51:46.856Z,26.28
2022-08-30T12:54:20.100Z,26.00
2022-08-30T12:57:13.941Z,25.98
2022-08-30T12:59:57.943Z,26.11
2022-08-30T13:02:41.893Z,26.28
2022-08-30T13:05:27.498Z,26.24
2022-08-30T13:08:19.569Z,26.13
2022-08-30T13:10:57.027Z,26.15
2022-08-30T13:13:31.583Z,26.28
2022-08-30T13:16:10.743Z,26.20
2022-08-30T13:18:38.614Z,26.31
2022-08-30T13:21:29.596Z,26.61
2022-08-30T13:24:02.682Z,26.71
2022-08-30T13:26:33.717Z,26.89
2022-08-30T13:29:03.449Z,27.37
2022-08-30T13:31:31.067Z,27.76
2022-08-30T13:33:59.667Z,28.07
2022-08-30T13:36:30.712Z,27.55
2022-08-30T13:38:59.014Z,27.34
2022-08-30T13:41:26.168Z,27.15
2022-08-30T13:44:14.129Z,27.26
2022-08-30T13:46:52.312Z,27.66
2022-08-30T13:52:22.883Z,27.86
2022-08-30T13:54:57.596Z,27.52
2022-08-30T14:00:19.436Z,27.34
2022-08-30T14:02:54.715Z,27.38
2022-08-30T14:05:48.986Z,27.57
2022-08-30T14:11:11.876Z,27.09
2022-08-30T14:14:14.652Z,27.01
2022-08-30T14:16:28.565Z,27.37
2022-08-30T14:18:56.345Z,27.67
2022-08-30T14:21:24.392Z,27.18
2022-08-30T14:23:52.694Z,26.81
2022-08-30T14:26:32.264Z,26.71
2022-08-30T14:28:59.869Z,26.41
2022-08-30T14:31:26.597Z,26.62
2022-08-30T14:33:53.314Z,26.73
2022-08-30T14:36:20.053Z,26.85
2022-08-30T14:38:48.518Z,26.92
2022-08-30T14:41:15.597Z,26.90
2022-08-30T14:43:42.446Z,26.98
2022-08-30T14:46:10.878Z,26.99
2022-08-30T14:48:38.901Z,27.12
2022-08-30T14:51:17.281Z,27.36
2022-08-30T14:53:44.410Z,27.42
2022-08-30T14:56:14.365Z,27.28
2022-08-30T14:58:41.091Z,27.28
2022-08-30T15:01:12.498Z,27.20
2022-08-30T15:03:40.664Z,26.76
2022-08-30T15:06:07.720Z,26.33
2022-08-30T15:08:35.967Z,26.23
2022-08-30T15:11:08.716Z,25.74
2022-08-30T15:13:35.819Z,25.63
2022-08-30T15:16:03.485Z,25.70
2022-08-30T15:18:30.579Z,25.57
2022-08-30T15:20:57.262Z,25.70
2022-08-30T15:23:24.884Z,25.70
2022-08-30T15:25:51.810Z,25.73
2022-08-30T15:28:19.252Z,25.58
2022-08-30T15:30:46.225Z,25.52
2022-08-30T15:33:12.903Z,25.62
2022-08-30T15:35:39.565Z,25.65
2022-08-30T15:38:06.437Z,25.59
2022-08-30T15:40:33.543Z,25.45
2022-08-30T15:43:03.927Z,25.38
2022-08-30T15:45:30.831Z,25.33
2022-08-30T15:48:00.912Z,25.29
2022-08-30T15:50:28.502Z,25.13
2022-08-30T15:52:55.161Z,25.24
2022-08-30T15:55:21.845Z,25.14
2022-08-30T15:57:48.527Z,25.17
2022-08-30T16:00:15.893Z,25.14
2022-08-30T16:02:42.657Z,25.10
2022-08-30T16:05:10.060Z,25.02
2022-08-30T16:07:40.682Z,24.96
2022-08-30T16:10:08.740Z,24.83
2022-08-30T16:12:35.393Z,24.85
2022-08-30T16:15:02.120Z,24.82
2022-08-30T16:17:28.802Z,24.77
2022-08-30T16:19:58.907Z,24.72
2022-08-30T16:22:26.573Z,24.68
2022-08-30T16:24:53.416Z,24.67
2022-08-30T16:27:21.234Z,24.69
2022-08-30T16:29:48.456Z,24.67
2022-08-30T16:32:17.374Z,24.77
2022-08-30T16:34:44.194Z,24.76
2022-08-30T16:37:10.904Z,24.62
2022-08-30T16:39:37.563Z,24.67
2022-08-30T16:42:06.828Z,24.57
2022-08-30T16:44:33.697Z,24.47
2022-08-30T16:47:01.498Z,24.35
2022-08-30T16:49:28.215Z,24.26
2022-08-30T16:51:55.098Z,24.17
2022-08-30T16:54:22.393Z,24.10
2022-08-30T16:56:49.180Z,23.97
2022-08-30T16:59:16.857Z,23.87
2022-08-30T17:01:44.871Z,23.86
2022-08-30T17:04:13.770Z,23.82
2022-08-30T17:06:45.113Z,23.72
2022-08-30T17:09:12.235Z,23.70
2022-08-30T17:11:40.255Z,23.68
2022-08-30T17:14:08.203Z,23.55
2022-08-30T17:16:36.955Z,23.48
2022-08-30T17:19:05.816Z,23.40
2022-08-30T17:21:33.460Z,23.29
2022-08-30T17:24:02.629Z,23.26
2022-08-30T17:26:35.942Z,23.21
2022-08-30T17:29:03.789Z,23.06
2022-08-30T17:31:31.240Z,22.97
2022-08-30T17:34:03.555Z,22.90
2022-08-30T17:36:35.315Z,22.88
2022-08-30T17:39:10.818Z,22.82
2022-08-30T17:41:43.390Z,22.70
2022-08-30T17:44:19.587Z,22.68
2022-08-30T17:46:46.450Z,22.58
2022-08-30T17:49:13.252Z,22.53
2022-08-30T17:51:43.009Z,22.51
2022-08-30T17:54:12.763Z,22.48
2022-08-30T17:56:40.558Z,22.35
2022-08-30T17:59:09.790Z,22.21
2022-08-30T18:01:37.332Z,22.00
2022-08-30T18:04:06.360Z,21.98
2022-08-30T18:06:34.481Z,21.95
2022-08-30T18:09:02.947Z,21.81
2022-08-30T18:11:29.742Z,21.69
2022-08-30T18:13:56.795Z,21.65
2022-08-30T18:16:26.269Z,21.59
2022-08-30T18:18:57.386Z,21.51
2022-08-30T18:21:25.292Z,21.42
2022-08-30T18:23:52.585Z,21.41
2022-08-30T18:26:19.446Z,21.35
2022-08-30T18:28:51.193Z,21.26
2022-08-30T18:31:17.911Z,21.14
2022-08-30T18:33:44.763Z,21.12
2022-08-30T18:36:11.501Z,21.03
2022-08-30T18:38:39.455Z,21.01
2022-08-30T18:41:09.392Z,20.90
2022-08-30T18:43:37.520Z,20.84
2022-08-30T18:46:09.372Z,20.73
2022-08-30T18:48:37.459Z,20.70
2022-08-30T18:51:11.305Z,20.62
2022-08-30T18:53:38.126Z,20.58
2022-08-30T18:56:05.156Z,20.58
2022-08-30T18:58:31.851Z,20.54
2022-08-30T19:00:58.531Z,20.46
2022-08-30T19:03:25.309Z,20.48
2022-08-30T19:05:52.022Z,20.40
2022-08-30T19:08:18.895Z,20.34
2022-08-30T19:10:45.671Z,20.41
2022-08-30T19:13:12.454Z,20.42
2022-08-30T19:15:39.159Z,20.37
2022-08-30T19:18:12.915Z,20.32
2022-08-30T19:20:45.399Z,20.14
2022-08-30T19:23:12.844Z,20.11
2022-08-30T19:25:41.318Z,20.19
2022-08-30T19:28:09.152Z,20.23
2022-08-30T19:30:36.132Z,20.17
2022-08-30T19:33:03.062Z,20.14
2022-08-30T19:35:30.407Z,20.15
2022-08-30T19:37:57.909Z,20.13
2022-08-30T19:40:25.534Z,20.04
2022-08-30T19:42:53.640Z,19.97
2022-08-30T19:45:21.618Z,19.83
2022-08-30T19:47:51.191Z,19.85
2022-08-30T19:50:18.187Z,19.80
2022-08-30T19:52:48.441Z,19.81
2022-08-30T19:55:19.566Z,19.70
2022-08-30T19:57:55.132Z,19.73
2022-08-30T20:00:23.444Z,19.67
2022-08-30T20:02:50.688Z,19.62
2022-08-30T20:05:18.233Z,19.56
2022-08-30T20:07:45.282Z,19.59
2022-08-30T20:10:15.313Z,19.52
2022-08-30T20:12:47.547Z,19.41
2022-08-30T20:15:16.863Z,19.30
2022-08-30T20:18:03.409Z,19.22
2022-08-30T20:20:33.266Z,19.20
2022-08-30T20:23:00.548Z,19.19
2022-08-30T20:25:28.929Z,19.19
2022-08-30T20:27:56.940Z,19.18
2022-08-30T20:30:23.666Z,19.15
2022-08-30T20:32:52.530Z,19.13
2022-08-30T20:35:19.317Z,19.10
2022-08-30T20:37:46.619Z,19.10
2022-08-30T20:40:16.045Z,19.07
2022-08-30T20:42:46.914Z,19.02
2022-08-30T20:45:15.838Z,18.91
2022-08-30T20:47:43.604Z,19.02
2022-08-30T20:50:16.474Z,18.98
2022-08-30T20:52:43.924Z,19.03
2022-08-30T20:55:11.916Z,18.97
2022-08-30T20:57:39.234Z,18.91
2022-08-30T21:00:10.474Z,18.99
2022-08-30T21:02:42.668Z,19.02
2022-08-30T21:05:15.512Z,19.03
2022-08-30T21:07:43.870Z,19.04
2022-08-30T21:10:11.335Z,18.90
2022-08-30T21:12:38.883Z,18.79
2022-08-30T21:15:33.744Z,18.68
2022-08-30T21:17:53.702Z,18.75
2022-08-30T21:20:20.448Z,18.82
2022-08-30T21:22:47.416Z,18.84
2022-08-30T21:25:14.121Z,18.90
2022-08-30T21:27:40.788Z,18.92
2022-08-30T21:30:08.365Z,18.89
2022-08-30T21:32:35.010Z,18.95
2022-08-30T21:35:20.430Z,18.96
2022-08-30T21:37:47.095Z,18.98
2022-08-30T21:40:17.081Z,18.97
2022-08-30T21:42:45.934Z,18.89
2022-08-30T21:45:13.973Z,18.91
2022-08-30T21:47:40.818Z,18.95
2022-08-30T21:50:08.056Z,18.94
2022-08-30T21:52:36.228Z,18.90
2022-08-30T21:55:03.674Z,18.98
2022-08-30T21:57:31.280Z,18.91
2022-08-30T21:59:58.343Z,18.87
2022-08-30T22:02:25.448Z,18.86
2022-08-30T22:04:52.951Z,18.82
2022-08-30T22:07:19.665Z,18.75
2022-08-30T22:09:46.329Z,18.82
2022-08-30T22:12:13.026Z,18.86
2022-08-30T22:14:42.670Z,18.75
2022-08-30T22:17:09.387Z,18.64
2022-08-30T22:19:36.056Z,18.60
2022-08-30T22:22:02.778Z,18.55
2022-08-30T22:24:32.262Z,18.45
2022-08-30T22:27:01.545Z,18.39
2022-08-30T22:29:29.356Z,18.31
2022-08-30T22:31:56.121Z,18.24
2022-08-30T22:34:23.009Z,18.10
2022-08-30T22:36:49.993Z,18.11
2022-08-30T22:39:18.216Z,18.15
2022-08-30T22:41:45.070Z,18.23
2022-08-30T22:44:12.462Z,18.13
2022-08-30T22:46:39.911Z,18.11
2022-08-30T22:49:11.812Z,18.06
2022-08-30T22:51:40.480Z,18.06
2022-08-30T22:54:09.524Z,18.10
2022-08-30T22:56:37.465Z,18.01
2022-08-30T22:59:05.256Z,18.18
2022-08-30T23:01:38.195Z,18.26
2022-08-30T23:04:07.518Z,18.25
2022-08-30T23:06:34.866Z,18.27
2022-08-30T23:09:01.927Z,18.20
2022-08-30T23:11:29.498Z,18.19
2022-08-30T23:13:58.543Z,18.20
2022-08-30T23:16:25.217Z,18.24
2022-08-30T23:18:51.918Z,18.20
2022-08-30T23:21:22.385Z,18.23
2022-08-30T23:24:09.895Z,18.23
2022-08-30T23:26:55.743Z,17.98
2022-08-30T23:29:41.204Z,17.82
2022-08-30T23:32:26.565Z,17.76
2022-08-30T23:35:11.843Z,17.79
2022-08-30T23:37:57.603Z,17.86
2022-08-30T23:40:43.305Z,17.83
2022-08-30T23:43:30.318Z,17.82
2022-08-30T23:46:19.257Z,17.83
2022-08-30T23:49:09.189Z,17.76
2022-08-30T23:51:56.073Z,17.71
2022-08-30T23:54:42.428Z,17.75
2022-08-30T23:57:28.016Z,17.72
